sensor_id;sensor_type;location;lat;lon;timestamp;P1;durP1;ratioP1;P2;durP2;ratioP2
46941;SDS011;32676;52.630;4.896;2022-10-16T00:00:43;3.95;;;0.82;;
46941;SDS011;32676;52.630;4.896;2022-10-16T00:03:11;7.90;;;0.73;;
46941;SDS011;32676;52.630;4.896;2022-10-16T00:05:38;6.57;;;1.17;;
46941;SDS011;32676;52.630;4.896;2022-10-16T00:08:06;5.88;;;1.50;;
46941;SDS011;32676;52.630;4.896;2022-10-16T00:10:33;4.30;;;0.57;;
46941;SDS011;32676;52.630;4.896;2022-10-16T00:13:00;3.80;;;0.47;;
46941;SDS011;32676;52.630;4.896;2022-10-16T00:15:26;6.03;;;1.30;;
46941;SDS011;32676;52.630;4.896;2022-10-16T00:17:54;3.25;;;0.73;;
46941;SDS011;32676;52.630;4.896;2022-10-16T00:20:21;3.15;;;0.47;;
46941;SDS011;32676;52.630;4.896;2022-10-16T00:22:47;1.88;;;0.70;;
46941;SDS011;32676;52.630;4.896;2022-10-16T00:25:14;7.93;;;0.65;;
46941;SDS011;32676;52.630;4.896;2022-10-16T00:27:40;7.10;;;1.42;;
46941;SDS011;32676;52.630;4.896;2022-10-16T00:30:07;6.18;;;0.80;;
46941;SDS011;32676;52.630;4.896;2022-10-16T00:32:34;8.82;;;0.65;;
46941;SDS011;32676;52.630;4.896;2022-10-16T00:35:02;4.20;;;0.80;;
46941;SDS011;32676;52.630;4.896;2022-10-16T00:37:29;3.20;;;0.60;;
46941;SDS011;32676;52.630;4.896;2022-10-16T00:39:56;2.50;;;0.85;;
46941;SDS011;32676;52.630;4.896;2022-10-16T00:42:22;2.95;;;0.65;;
46941;SDS011;32676;52.630;4.896;2022-10-16T00:44:50;4.72;;;0.63;;
46941;SDS011;32676;52.630;4.896;2022-10-16T00:47:19;7.25;;;1.23;;
46941;SDS011;32676;52.630;4.896;2022-10-16T00:49:49;5.30;;;0.50;;
46941;SDS011;32676;52.630;4.896;2022-10-16T00:52:20;6.35;;;0.57;;
46941;SDS011;32676;52.630;4.896;2022-10-16T00:54:47;4.93;;;0.73;;
46941;SDS011;32676;52.630;4.896;2022-10-16T00:57:15;4.93;;;1.13;;
46941;SDS011;32676;52.630;4.896;2022-10-16T00:59:42;3.60;;;0.82;;
46941;SDS011;32676;52.630;4.896;2022-10-16T01:02:09;10.02;;;0.70;;
46941;SDS011;32676;52.630;4.896;2022-10-16T01:04:38;1.00;;;0.30;;
46941;SDS011;32676;52.630;4.896;2022-10-16T01:07:08;10.60;;;0.70;;
46941;SDS011;32676;52.630;4.896;2022-10-16T01:09:44;8.38;;;1.60;;
46941;SDS011;32676;52.630;4.896;2022-10-16T01:12:18;3.05;;;0.70;;
46941;SDS011;32676;52.630;4.896;2022-10-16T01:14:55;2.78;;;0.77;;
46941;SDS011;32676;52.630;4.896;2022-10-16T01:17:26;5.78;;;0.70;;
46941;SDS011;32676;52.630;4.896;2022-10-16T01:20:03;4.15;;;1.05;;
46941;SDS011;32676;52.630;4.896;2022-10-16T01:22:38;3.10;;;0.82;;
46941;SDS011;32676;52.630;4.896;2022-10-16T01:27:44;2.35;;;0.52;;
46941;SDS011;32676;52.630;4.896;2022-10-16T01:30:13;5.65;;;0.65;;
46941;SDS011;32676;52.630;4.896;2022-10-16T01:32:44;6.20;;;0.60;;
46941;SDS011;32676;52.630;4.896;2022-10-16T01:35:17;10.00;;;0.80;;
46941;SDS011;32676;52.630;4.896;2022-10-16T01:37:48;4.35;;;0.88;;
46941;SDS011;32676;52.630;4.896;2022-10-16T01:40:17;4.60;;;1.30;;
46941;SDS011;32676;52.630;4.896;2022-10-16T01:42:48;3.42;;;0.88;;
46941;SDS011;32676;52.630;4.896;2022-10-16T01:45:19;2.20;;;0.85;;
46941;SDS011;32676;52.630;4.896;2022-10-16T01:47:47;5.30;;;1.35;;
46941;SDS011;32676;52.630;4.896;2022-10-16T01:50:16;5.25;;;1.00;;
46941;SDS011;32676;52.630;4.896;2022-10-16T01:52:45;4.55;;;0.50;;
46941;SDS011;32676;52.630;4.896;2022-10-16T01:55:16;7.72;;;0.85;;
46941;SDS011;32676;52.630;4.896;2022-10-16T01:57:47;4.50;;;0.40;;
46941;SDS011;32676;52.630;4.896;2022-10-16T02:00:17;2.00;;;0.60;;
46941;SDS011;32676;52.630;4.896;2022-10-16T02:02:47;4.25;;;0.60;;
46941;SDS011;32676;52.630;4.896;2022-10-16T02:05:16;6.72;;;0.55;;
46941;SDS011;32676;52.630;4.896;2022-10-16T02:07:48;5.10;;;0.52;;
46941;SDS011;32676;52.630;4.896;2022-10-16T02:10:16;2.08;;;0.50;;
46941;SDS011;32676;52.630;4.896;2022-10-16T02:12:44;5.25;;;0.65;;
46941;SDS011;32676;52.630;4.896;2022-10-16T02:15:15;5.53;;;0.52;;
46941;SDS011;32676;52.630;4.896;2022-10-16T02:17:42;4.32;;;0.65;;
46941;SDS011;32676;52.630;4.896;2022-10-16T02:20:08;6.28;;;0.38;;
46941;SDS011;32676;52.630;4.896;2022-10-16T02:22:36;5.10;;;0.70;;
46941;SDS011;32676;52.630;4.896;2022-10-16T02:25:07;5.28;;;1.52;;
46941;SDS011;32676;52.630;4.896;2022-10-16T02:27:39;1.38;;;0.32;;
46941;SDS011;32676;52.630;4.896;2022-10-16T02:30:13;7.72;;;0.63;;
46941;SDS011;32676;52.630;4.896;2022-10-16T02:32:45;0.83;;;0.20;;
46941;SDS011;32676;52.630;4.896;2022-10-16T02:35:15;1.92;;;0.30;;
46941;SDS011;32676;52.630;4.896;2022-10-16T02:37:44;4.15;;;0.60;;
46941;SDS011;32676;52.630;4.896;2022-10-16T02:40:12;2.53;;;0.43;;
46941;SDS011;32676;52.630;4.896;2022-10-16T02:42:39;7.25;;;0.55;;
46941;SDS011;32676;52.630;4.896;2022-10-16T02:45:07;2.00;;;0.30;;
46941;SDS011;32676;52.630;4.896;2022-10-16T02:47:37;2.05;;;0.50;;
46941;SDS011;32676;52.630;4.896;2022-10-16T02:50:04;3.05;;;0.65;;
46941;SDS011;32676;52.630;4.896;2022-10-16T02:52:31;2.97;;;0.88;;
46941;SDS011;32676;52.630;4.896;2022-10-16T02:54:57;4.70;;;0.60;;
46941;SDS011;32676;52.630;4.896;2022-10-16T02:57:24;4.68;;;0.55;;
46941;SDS011;32676;52.630;4.896;2022-10-16T02:59:50;4.32;;;0.47;;
46941;SDS011;32676;52.630;4.896;2022-10-16T03:02:17;4.43;;;0.32;;
46941;SDS011;32676;52.630;4.896;2022-10-16T03:04:44;3.67;;;0.50;;
46941;SDS011;32676;52.630;4.896;2022-10-16T03:07:11;3.90;;;0.60;;
46941;SDS011;32676;52.630;4.896;2022-10-16T03:09:37;5.50;;;0.47;;
46941;SDS011;32676;52.630;4.896;2022-10-16T03:12:04;3.42;;;0.90;;
46941;SDS011;32676;52.630;4.896;2022-10-16T03:14:30;3.70;;;0.80;;
46941;SDS011;32676;52.630;4.896;2022-10-16T03:16:57;9.27;;;2.35;;
46941;SDS011;32676;52.630;4.896;2022-10-16T03:19:24;3.63;;;1.13;;
46941;SDS011;32676;52.630;4.896;2022-10-16T03:21:52;5.30;;;1.05;;
46941;SDS011;32676;52.630;4.896;2022-10-16T03:24:18;5.15;;;0.77;;
46941;SDS011;32676;52.630;4.896;2022-10-16T03:26:45;6.57;;;0.70;;
46941;SDS011;32676;52.630;4.896;2022-10-16T03:29:11;6.20;;;0.90;;
46941;SDS011;32676;52.630;4.896;2022-10-16T03:31:38;6.90;;;0.77;;
46941;SDS011;32676;52.630;4.896;2022-10-16T03:34:04;4.65;;;0.60;;
46941;SDS011;32676;52.630;4.896;2022-10-16T03:36:31;5.55;;;1.02;;
46941;SDS011;32676;52.630;4.896;2022-10-16T03:38:58;2.17;;;0.52;;
46941;SDS011;32676;52.630;4.896;2022-10-16T03:41:25;2.30;;;0.35;;
46941;SDS011;32676;52.630;4.896;2022-10-16T03:43:52;1.50;;;0.60;;
46941;SDS011;32676;52.630;4.896;2022-10-16T03:46:18;6.70;;;0.98;;
46941;SDS011;32676;52.630;4.896;2022-10-16T03:48:45;5.30;;;0.80;;
46941;SDS011;32676;52.630;4.896;2022-10-16T03:51:11;4.70;;;0.68;;
46941;SDS011;32676;52.630;4.896;2022-10-16T03:53:37;4.82;;;0.80;;
46941;SDS011;32676;52.630;4.896;2022-10-16T03:56:07;3.90;;;0.90;;
46941;SDS011;32676;52.630;4.896;2022-10-16T03:58:33;2.97;;;0.57;;
46941;SDS011;32676;52.630;4.896;2022-10-16T04:01:00;3.35;;;0.40;;
46941;SDS011;32676;52.630;4.896;2022-10-16T04:03:26;5.00;;;0.95;;
46941;SDS011;32676;52.630;4.896;2022-10-16T04:05:53;6.85;;;1.00;;
46941;SDS011;32676;52.630;4.896;2022-10-16T04:08:20;8.75;;;1.90;;
46941;SDS011;32676;52.630;4.896;2022-10-16T04:10:46;4.28;;;0.95;;
46941;SDS011;32676;52.630;4.896;2022-10-16T04:13:14;8.43;;;1.88;;
46941;SDS011;32676;52.630;4.896;2022-10-16T04:15:41;4.07;;;0.75;;
46941;SDS011;32676;52.630;4.896;2022-10-16T04:18:08;4.60;;;1.63;;
46941;SDS011;32676;52.630;4.896;2022-10-16T04:20:34;1.02;;;0.55;;
46941;SDS011;32676;52.630;4.896;2022-10-16T04:23:01;2.97;;;0.93;;
46941;SDS011;32676;52.630;4.896;2022-10-16T04:25:27;4.28;;;1.10;;
46941;SDS011;32676;52.630;4.896;2022-10-16T04:27:54;6.60;;;1.33;;
46941;SDS011;32676;52.630;4.896;2022-10-16T04:30:23;6.32;;;1.25;;
46941;SDS011;32676;52.630;4.896;2022-10-16T04:32:49;3.28;;;0.70;;
46941;SDS011;32676;52.630;4.896;2022-10-16T04:35:16;5.53;;;0.93;;
46941;SDS011;32676;52.630;4.896;2022-10-16T04:37:44;5.85;;;0.93;;
46941;SDS011;32676;52.630;4.896;2022-10-16T04:40:10;4.80;;;0.90;;
46941;SDS011;32676;52.630;4.896;2022-10-16T04:42:37;10.18;;;1.17;;
46941;SDS011;32676;52.630;4.896;2022-10-16T04:45:04;3.58;;;0.70;;
46941;SDS011;32676;52.630;4.896;2022-10-16T04:47:33;6.97;;;2.08;;
46941;SDS011;32676;52.630;4.896;2022-10-16T04:49:59;4.55;;;1.25;;
46941;SDS011;32676;52.630;4.896;2022-10-16T04:52:27;5.22;;;0.82;;
46941;SDS011;32676;52.630;4.896;2022-10-16T04:54:56;5.60;;;0.60;;
46941;SDS011;32676;52.630;4.896;2022-10-16T04:57:25;6.85;;;0.90;;
46941;SDS011;32676;52.630;4.896;2022-10-16T04:59:52;4.47;;;0.70;;
46941;SDS011;32676;52.630;4.896;2022-10-16T05:02:19;6.85;;;1.95;;
46941;SDS011;32676;52.630;4.896;2022-10-16T05:04:47;8.15;;;1.25;;
46941;SDS011;32676;52.630;4.896;2022-10-16T05:07:13;11.95;;;1.17;;
46941;SDS011;32676;52.630;4.896;2022-10-16T05:09:40;11.07;;;1.60;;
46941;SDS011;32676;52.630;4.896;2022-10-16T05:12:06;8.98;;;1.08;;
46941;SDS011;32676;52.630;4.896;2022-10-16T05:14:33;6.03;;;1.10;;
46941;SDS011;32676;52.630;4.896;2022-10-16T05:16:59;6.97;;;1.95;;
46941;SDS011;32676;52.630;4.896;2022-10-16T05:19:26;4.55;;;1.02;;
46941;SDS011;32676;52.630;4.896;2022-10-16T05:21:54;7.03;;;1.63;;
46941;SDS011;32676;52.630;4.896;2022-10-16T05:24:20;6.07;;;1.30;;
46941;SDS011;32676;52.630;4.896;2022-10-16T05:26:47;8.02;;;1.55;;
46941;SDS011;32676;52.630;4.896;2022-10-16T05:29:13;5.18;;;1.35;;
46941;SDS011;32676;52.630;4.896;2022-10-16T05:31:40;9.60;;;1.50;;
46941;SDS011;32676;52.630;4.896;2022-10-16T05:34:06;7.18;;;1.45;;
46941;SDS011;32676;52.630;4.896;2022-10-16T05:36:33;6.90;;;1.08;;
46941;SDS011;32676;52.630;4.896;2022-10-16T05:39:01;6.10;;;1.45;;
46941;SDS011;32676;52.630;4.896;2022-10-16T05:41:27;5.97;;;1.00;;
46941;SDS011;32676;52.630;4.896;2022-10-16T05:43:54;2.33;;;0.47;;
46941;SDS011;32676;52.630;4.896;2022-10-16T05:46:20;5.03;;;0.50;;
46941;SDS011;32676;52.630;4.896;2022-10-16T05:48:46;6.30;;;0.82;;
46941;SDS011;32676;52.630;4.896;2022-10-16T05:51:13;5.90;;;0.90;;
46941;SDS011;32676;52.630;4.896;2022-10-16T05:53:41;2.95;;;0.73;;
46941;SDS011;32676;52.630;4.896;2022-10-16T05:56:10;6.28;;;1.10;;
46941;SDS011;32676;52.630;4.896;2022-10-16T05:58:37;6.45;;;1.10;;
46941;SDS011;32676;52.630;4.896;2022-10-16T06:01:06;5.45;;;1.45;;
46941;SDS011;32676;52.630;4.896;2022-10-16T06:03:35;8.82;;;0.80;;
46941;SDS011;32676;52.630;4.896;2022-10-16T06:06:06;4.82;;;0.95;;
46941;SDS011;32676;52.630;4.896;2022-10-16T06:08:34;14.82;;;1.00;;
46941;SDS011;32676;52.630;4.896;2022-10-16T06:11:01;3.72;;;1.02;;
46941;SDS011;32676;52.630;4.896;2022-10-16T06:13:29;3.53;;;0.57;;
46941;SDS011;32676;52.630;4.896;2022-10-16T06:15:56;5.05;;;0.50;;
46941;SDS011;32676;52.630;4.896;2022-10-16T06:18:24;10.63;;;2.08;;
46941;SDS011;32676;52.630;4.896;2022-10-16T06:20:51;6.63;;;0.73;;
46941;SDS011;32676;52.630;4.896;2022-10-16T06:23:17;6.03;;;0.68;;
46941;SDS011;32676;52.630;4.896;2022-10-16T06:25:44;8.93;;;1.25;;
46941;SDS011;32676;52.630;4.896;2022-10-16T06:28:11;3.10;;;0.70;;
46941;SDS011;32676;52.630;4.896;2022-10-16T06:30:38;8.27;;;2.63;;
46941;SDS011;32676;52.630;4.896;2022-10-16T06:33:05;5.93;;;1.35;;
46941;SDS011;32676;52.630;4.896;2022-10-16T06:35:31;7.13;;;1.02;;
46941;SDS011;32676;52.630;4.896;2022-10-16T06:37:58;10.45;;;1.17;;
46941;SDS011;32676;52.630;4.896;2022-10-16T06:40:24;7.70;;;1.05;;
46941;SDS011;32676;52.630;4.896;2022-10-16T06:42:51;9.82;;;1.65;;
46941;SDS011;32676;52.630;4.896;2022-10-16T06:45:20;9.07;;;2.25;;
46941;SDS011;32676;52.630;4.896;2022-10-16T06:47:48;6.75;;;0.88;;
46941;SDS011;32676;52.630;4.896;2022-10-16T06:50:15;3.05;;;0.38;;
46941;SDS011;32676;52.630;4.896;2022-10-16T06:52:41;4.20;;;1.10;;
46941;SDS011;32676;52.630;4.896;2022-10-16T06:55:08;5.55;;;0.82;;
46941;SDS011;32676;52.630;4.896;2022-10-16T06:57:34;4.45;;;0.82;;
46941;SDS011;32676;52.630;4.896;2022-10-16T07:00:01;2.38;;;0.63;;
46941;SDS011;32676;52.630;4.896;2022-10-16T07:02:28;5.90;;;0.82;;
46941;SDS011;32676;52.630;4.896;2022-10-16T07:04:56;7.20;;;0.80;;
46941;SDS011;32676;52.630;4.896;2022-10-16T07:07:22;3.83;;;0.60;;
46941;SDS011;32676;52.630;4.896;2022-10-16T07:09:51;4.70;;;0.70;;
46941;SDS011;32676;52.630;4.896;2022-10-16T07:12:18;5.07;;;1.70;;
46941;SDS011;32676;52.630;4.896;2022-10-16T07:14:44;5.95;;;0.68;;
46941;SDS011;32676;52.630;4.896;2022-10-16T07:17:11;4.90;;;1.40;;
46941;SDS011;32676;52.630;4.896;2022-10-16T07:19:37;5.60;;;1.10;;
46941;SDS011;32676;52.630;4.896;2022-10-16T07:22:05;4.60;;;0.88;;
46941;SDS011;32676;52.630;4.896;2022-10-16T07:24:32;10.57;;;1.33;;
46941;SDS011;32676;52.630;4.896;2022-10-16T07:26:58;5.50;;;0.90;;
46941;SDS011;32676;52.630;4.896;2022-10-16T07:29:25;4.25;;;0.82;;
46941;SDS011;32676;52.630;4.896;2022-10-16T07:31:52;8.07;;;0.90;;
46941;SDS011;32676;52.630;4.896;2022-10-16T07:34:19;4.65;;;0.75;;
46941;SDS011;32676;52.630;4.896;2022-10-16T07:36:47;6.10;;;1.10;;
46941;SDS011;32676;52.630;4.896;2022-10-16T07:39:16;8.93;;;1.25;;
46941;SDS011;32676;52.630;4.896;2022-10-16T07:41:43;10.45;;;1.05;;
46941;SDS011;32676;52.630;4.896;2022-10-16T07:44:10;4.03;;;1.00;;
46941;SDS011;32676;52.630;4.896;2022-10-16T07:46:37;7.07;;;1.00;;
46941;SDS011;32676;52.630;4.896;2022-10-16T07:49:03;7.68;;;1.92;;
46941;SDS011;32676;52.630;4.896;2022-10-16T07:51:30;4.88;;;0.98;;
46941;SDS011;32676;52.630;4.896;2022-10-16T07:53:56;13.32;;;1.20;;
46941;SDS011;32676;52.630;4.896;2022-10-16T07:56:24;12.50;;;2.88;;
46941;SDS011;32676;52.630;4.896;2022-10-16T07:58:51;8.35;;;0.90;;
46941;SDS011;32676;52.630;4.896;2022-10-16T08:01:18;8.18;;;1.42;;
46941;SDS011;32676;52.630;4.896;2022-10-16T08:03:46;12.52;;;2.22;;
46941;SDS011;32676;52.630;4.896;2022-10-16T08:06:14;7.43;;;0.95;;
46941;SDS011;32676;52.630;4.896;2022-10-16T08:08:41;9.55;;;2.95;;
46941;SDS011;32676;52.630;4.896;2022-10-16T08:11:07;12.35;;;1.95;;
46941;SDS011;32676;52.630;4.896;2022-10-16T08:13:36;18.98;;;4.30;;
46941;SDS011;32676;52.630;4.896;2022-10-16T08:16:03;15.93;;;2.08;;
46941;SDS011;32676;52.630;4.896;2022-10-16T08:18:32;7.88;;;1.90;;
46941;SDS011;32676;52.630;4.896;2022-10-16T08:20:59;10.85;;;2.30;;
46941;SDS011;32676;52.630;4.896;2022-10-16T08:23:26;16.55;;;2.85;;
46941;SDS011;32676;52.630;4.896;2022-10-16T08:25:53;14.77;;;1.70;;
46941;SDS011;32676;52.630;4.896;2022-10-16T08:28:21;12.50;;;1.90;;
46941;SDS011;32676;52.630;4.896;2022-10-16T08:30:50;10.02;;;1.75;;
46941;SDS011;32676;52.630;4.896;2022-10-16T08:33:16;18.58;;;2.42;;
46941;SDS011;32676;52.630;4.896;2022-10-16T08:35:49;17.73;;;2.90;;
46941;SDS011;32676;52.630;4.896;2022-10-16T08:38:16;17.30;;;3.55;;
46941;SDS011;32676;52.630;4.896;2022-10-16T08:40:43;19.42;;;3.88;;
46941;SDS011;32676;52.630;4.896;2022-10-16T08:43:21;16.42;;;2.25;;
46941;SDS011;32676;52.630;4.896;2022-10-16T08:46:07;14.57;;;3.10;;
46941;SDS011;32676;52.630;4.896;2022-10-16T08:48:45;18.80;;;2.88;;
46941;SDS011;32676;52.630;4.896;2022-10-16T08:51:17;18.95;;;3.15;;
46941;SDS011;32676;52.630;4.896;2022-10-16T08:53:48;14.95;;;1.98;;
46941;SDS011;32676;52.630;4.896;2022-10-16T08:56:18;22.38;;;3.45;;
46941;SDS011;32676;52.630;4.896;2022-10-16T08:58:46;12.30;;;1.70;;
46941;SDS011;32676;52.630;4.896;2022-10-16T09:01:16;15.35;;;2.30;;
46941;SDS011;32676;52.630;4.896;2022-10-16T09:03:48;25.92;;;4.20;;
46941;SDS011;32676;52.630;4.896;2022-10-16T09:06:36;26.58;;;3.50;;
46941;SDS011;32676;52.630;4.896;2022-10-16T09:09:15;20.20;;;2.75;;
46941;SDS011;32676;52.630;4.896;2022-10-16T09:14:32;17.90;;;2.22;;
46941;SDS011;32676;52.630;4.896;2022-10-16T09:17:14;16.75;;;2.67;;
46941;SDS011;32676;52.630;4.896;2022-10-16T09:19:51;18.13;;;1.77;;
46941;SDS011;32676;52.630;4.896;2022-10-16T09:22:21;19.50;;;1.85;;
46941;SDS011;32676;52.630;4.896;2022-10-16T09:24:53;17.40;;;3.90;;
46941;SDS011;32676;52.630;4.896;2022-10-16T09:27:20;22.30;;;2.40;;
46941;SDS011;32676;52.630;4.896;2022-10-16T09:29:47;15.32;;;2.47;;
46941;SDS011;32676;52.630;4.896;2022-10-16T09:32:15;15.25;;;2.55;;
46941;SDS011;32676;52.630;4.896;2022-10-16T09:34:45;12.38;;;1.67;;
46941;SDS011;32676;52.630;4.896;2022-10-16T09:37:17;18.15;;;3.30;;
46941;SDS011;32676;52.630;4.896;2022-10-16T09:39:44;26.00;;;1.77;;
46941;SDS011;32676;52.630;4.896;2022-10-16T09:42:13;14.13;;;2.03;;
46941;SDS011;32676;52.630;4.896;2022-10-16T09:44:41;14.85;;;1.60;;
46941;SDS011;32676;52.630;4.896;2022-10-16T09:47:12;17.42;;;3.28;;
46941;SDS011;32676;52.630;4.896;2022-10-16T09:49:51;18.35;;;2.03;;
46941;SDS011;32676;52.630;4.896;2022-10-16T09:52:21;17.13;;;1.88;;
46941;SDS011;32676;52.630;4.896;2022-10-16T09:54:49;20.25;;;2.00;;
46941;SDS011;32676;52.630;4.896;2022-10-16T09:57:17;16.63;;;2.00;;
46941;SDS011;32676;52.630;4.896;2022-10-16T09:59:46;12.32;;;4.28;;
46941;SDS011;32676;52.630;4.896;2022-10-16T10:02:14;10.65;;;2.03;;
46941;SDS011;32676;52.630;4.896;2022-10-16T10:04:44;12.15;;;1.98;;
46941;SDS011;32676;52.630;4.896;2022-10-16T10:07:18;14.90;;;1.88;;
46941;SDS011;32676;52.630;4.896;2022-10-16T10:09:50;11.02;;;2.30;;
46941;SDS011;32676;52.630;4.896;2022-10-16T10:12:17;20.48;;;3.22;;
46941;SDS011;32676;52.630;4.896;2022-10-16T10:14:46;22.30;;;2.65;;
46941;SDS011;32676;52.630;4.896;2022-10-16T10:17:16;12.05;;;1.58;;
46941;SDS011;32676;52.630;4.896;2022-10-16T10:19:48;15.30;;;1.73;;
46941;SDS011;32676;52.630;4.896;2022-10-16T10:22:19;14.98;;;2.42;;
46941;SDS011;32676;52.630;4.896;2022-10-16T10:24:56;12.88;;;2.17;;
46941;SDS011;32676;52.630;4.896;2022-10-16T10:27:28;7.95;;;1.65;;
46941;SDS011;32676;52.630;4.896;2022-10-16T10:30:02;15.02;;;2.45;;
46941;SDS011;32676;52.630;4.896;2022-10-16T10:35:12;17.67;;;4.05;;
46941;SDS011;32676;52.630;4.896;2022-10-16T10:37:55;15.73;;;2.15;;
46941;SDS011;32676;52.630;4.896;2022-10-16T10:40:34;14.88;;;2.63;;
46941;SDS011;32676;52.630;4.896;2022-10-16T10:43:11;11.18;;;2.08;;
46941;SDS011;32676;52.630;4.896;2022-10-16T10:45:57;13.00;;;2.03;;
46941;SDS011;32676;52.630;4.896;2022-10-16T10:48:38;15.23;;;1.27;;
46941;SDS011;32676;52.630;4.896;2022-10-16T10:51:19;20.67;;;2.83;;
46941;SDS011;32676;52.630;4.896;2022-10-16T10:53:54;13.02;;;1.55;;
46941;SDS011;32676;52.630;4.896;2022-10-16T10:56:39;12.25;;;2.35;;
46941;SDS011;32676;52.630;4.896;2022-10-16T10:59:25;13.80;;;2.15;;
46941;SDS011;32676;52.630;4.896;2022-10-16T11:02:11;15.60;;;1.85;;
46941;SDS011;32676;52.630;4.896;2022-10-16T11:07:32;13.98;;;2.45;;
46941;SDS011;32676;52.630;4.896;2022-10-16T11:10:08;13.45;;;2.90;;
46941;SDS011;32676;52.630;4.896;2022-10-16T11:12:41;13.88;;;2.42;;
46941;SDS011;32676;52.630;4.896;2022-10-16T11:15:11;16.13;;;2.28;;
46941;SDS011;32676;52.630;4.896;2022-10-16T11:17:42;12.90;;;1.70;;
46941;SDS011;32676;52.630;4.896;2022-10-16T11:20:14;12.68;;;2.00;;
46941;SDS011;32676;52.630;4.896;2022-10-16T11:22:47;10.85;;;2.15;;
46941;SDS011;32676;52.630;4.896;2022-10-16T11:25:19;17.42;;;1.92;;
46941;SDS011;32676;52.630;4.896;2022-10-16T11:27:50;22.42;;;2.25;;
46941;SDS011;32676;52.630;4.896;2022-10-16T11:30:20;16.40;;;2.22;;
46941;SDS011;32676;52.630;4.896;2022-10-16T11:32:51;13.20;;;2.38;;
46941;SDS011;32676;52.630;4.896;2022-10-16T11:35:23;22.08;;;2.30;;
46941;SDS011;32676;52.630;4.896;2022-10-16T11:38:07;19.90;;;2.25;;
46941;SDS011;32676;52.630;4.896;2022-10-16T11:40:41;11.32;;;1.50;;
46941;SDS011;32676;52.630;4.896;2022-10-16T11:43:14;10.93;;;1.48;;
46941;SDS011;32676;52.630;4.896;2022-10-16T11:45:47;21.02;;;2.30;;
46941;SDS011;32676;52.630;4.896;2022-10-16T11:48:19;14.32;;;1.48;;
46941;SDS011;32676;52.630;4.896;2022-10-16T11:50:52;13.80;;;2.30;;
46941;SDS011;32676;52.630;4.896;2022-10-16T11:53:23;15.93;;;2.10;;
46941;SDS011;32676;52.630;4.896;2022-10-16T11:55:58;14.68;;;2.55;;
46941;SDS011;32676;52.630;4.896;2022-10-16T11:58:26;12.05;;;2.17;;
46941;SDS011;32676;52.630;4.896;2022-10-16T12:01:00;10.32;;;3.17;;
46941;SDS011;32676;52.630;4.896;2022-10-16T12:03:38;11.45;;;1.45;;
46941;SDS011;32676;52.630;4.896;2022-10-16T12:06:13;10.93;;;1.40;;
46941;SDS011;32676;52.630;4.896;2022-10-16T12:09:00;12.15;;;2.15;;
46941;SDS011;32676;52.630;4.896;2022-10-16T12:11:34;12.18;;;1.58;;
46941;SDS011;32676;52.630;4.896;2022-10-16T12:14:03;11.85;;;3.28;;
46941;SDS011;32676;52.630;4.896;2022-10-16T12:16:33;12.20;;;1.73;;
46941;SDS011;32676;52.630;4.896;2022-10-16T12:19:03;9.13;;;1.20;;
46941;SDS011;32676;52.630;4.896;2022-10-16T12:21:37;10.35;;;1.25;;
46941;SDS011;32676;52.630;4.896;2022-10-16T12:24:04;9.00;;;1.33;;
46941;SDS011;32676;52.630;4.896;2022-10-16T12:26:32;19.40;;;1.88;;
46941;SDS011;32676;52.630;4.896;2022-10-16T12:29:11;11.27;;;1.70;;
46941;SDS011;32676;52.630;4.896;2022-10-16T12:31:43;7.40;;;1.17;;
46941;SDS011;32676;52.630;4.896;2022-10-16T12:34:14;10.93;;;2.17;;
46941;SDS011;32676;52.630;4.896;2022-10-16T12:36:48;9.38;;;1.63;;
46941;SDS011;32676;52.630;4.896;2022-10-16T12:39:20;16.02;;;2.60;;
46941;SDS011;32676;52.630;4.896;2022-10-16T12:41:59;18.30;;;2.47;;
46941;SDS011;32676;52.630;4.896;2022-10-16T12:44:31;10.27;;;1.67;;
46941;SDS011;32676;52.630;4.896;2022-10-16T12:46:58;21.88;;;2.05;;
46941;SDS011;32676;52.630;4.896;2022-10-16T12:49:30;20.10;;;1.55;;
46941;SDS011;32676;52.630;4.896;2022-10-16T12:51:58;10.85;;;1.50;;
46941;SDS011;32676;52.630;4.896;2022-10-16T12:54:27;11.70;;;1.55;;
46941;SDS011;32676;52.630;4.896;2022-10-16T12:57:12;14.80;;;2.75;;
46941;SDS011;32676;52.630;4.896;2022-10-16T12:59:57;9.25;;;0.95;;
46941;SDS011;32676;52.630;4.896;2022-10-16T13:02:38;13.80;;;1.73;;
46941;SDS011;32676;52.630;4.896;2022-10-16T13:05:21;15.77;;;1.55;;
46941;SDS011;32676;52.630;4.896;2022-10-16T13:07:56;9.32;;;1.05;;
46941;SDS011;32676;52.630;4.896;2022-10-16T13:10:34;12.55;;;1.60;;
46941;SDS011;32676;52.630;4.896;2022-10-16T13:13:12;9.43;;;1.42;;
46941;SDS011;32676;52.630;4.896;2022-10-16T13:16:01;15.27;;;1.52;;
46941;SDS011;32676;52.630;4.896;2022-10-16T13:18:53;12.60;;;1.52;;
46941;SDS011;32676;52.630;4.896;2022-10-16T13:21:32;14.93;;;1.75;;
46941;SDS011;32676;52.630;4.896;2022-10-16T13:24:08;8.30;;;1.45;;
46941;SDS011;32676;52.630;4.896;2022-10-16T13:26:45;14.95;;;1.50;;
46941;SDS011;32676;52.630;4.896;2022-10-16T13:29:20;15.93;;;1.38;;
46941;SDS011;32676;52.630;4.896;2022-10-16T13:31:47;15.75;;;2.05;;
46941;SDS011;32676;52.630;4.896;2022-10-16T13:34:14;18.52;;;2.00;;
46941;SDS011;32676;52.630;4.896;2022-10-16T13:36:44;17.48;;;1.65;;
46941;SDS011;32676;52.630;4.896;2022-10-16T13:39:13;9.38;;;1.90;;
46941;SDS011;32676;52.630;4.896;2022-10-16T13:41:42;7.78;;;1.20;;
46941;SDS011;32676;52.630;4.896;2022-10-16T13:44:12;21.23;;;2.78;;
46941;SDS011;32676;52.630;4.896;2022-10-16T13:46:43;16.63;;;1.30;;
46941;SDS011;32676;52.630;4.896;2022-10-16T13:49:12;8.98;;;1.30;;
46941;SDS011;32676;52.630;4.896;2022-10-16T13:51:40;11.80;;;1.75;;
46941;SDS011;32676;52.630;4.896;2022-10-16T13:54:07;7.85;;;1.05;;
46941;SDS011;32676;52.630;4.896;2022-10-16T13:56:35;8.43;;;1.35;;
46941;SDS011;32676;52.630;4.896;2022-10-16T13:59:02;12.82;;;1.38;;
46941;SDS011;32676;52.630;4.896;2022-10-16T14:01:30;9.52;;;1.48;;
46941;SDS011;32676;52.630;4.896;2022-10-16T14:04:02;13.20;;;1.88;;
46941;SDS011;32676;52.630;4.896;2022-10-16T14:06:30;9.82;;;1.33;;
46941;SDS011;32676;52.630;4.896;2022-10-16T14:08:59;10.30;;;1.40;;
46941;SDS011;32676;52.630;4.896;2022-10-16T14:11:27;13.82;;;1.75;;
46941;SDS011;32676;52.630;4.896;2022-10-16T14:13:55;15.02;;;1.50;;
46941;SDS011;32676;52.630;4.896;2022-10-16T14:16:23;13.80;;;1.30;;
46941;SDS011;32676;52.630;4.896;2022-10-16T14:18:55;5.40;;;1.05;;
46941;SDS011;32676;52.630;4.896;2022-10-16T14:21:25;12.02;;;2.63;;
46941;SDS011;32676;52.630;4.896;2022-10-16T14:23:52;9.80;;;1.00;;
46941;SDS011;32676;52.630;4.896;2022-10-16T14:26:20;9.63;;;1.48;;
46941;SDS011;32676;52.630;4.896;2022-10-16T14:28:48;13.77;;;1.45;;
46941;SDS011;32676;52.630;4.896;2022-10-16T14:31:28;8.85;;;1.58;;
46941;SDS011;32676;52.630;4.896;2022-10-16T14:33:57;7.47;;;0.98;;
46941;SDS011;32676;52.630;4.896;2022-10-16T14:36:26;9.77;;;1.17;;
46941;SDS011;32676;52.630;4.896;2022-10-16T14:38:58;8.00;;;1.45;;
46941;SDS011;32676;52.630;4.896;2022-10-16T14:41:27;10.90;;;1.33;;
46941;SDS011;32676;52.630;4.896;2022-10-16T14:43:54;9.50;;;1.38;;
46941;SDS011;32676;52.630;4.896;2022-10-16T14:46:22;9.30;;;1.65;;
46941;SDS011;32676;52.630;4.896;2022-10-16T14:49:00;23.83;;;3.33;;
46941;SDS011;32676;52.630;4.896;2022-10-16T14:51:30;8.90;;;1.27;;
46941;SDS011;32676;52.630;4.896;2022-10-16T14:53:57;14.50;;;2.17;;
46941;SDS011;32676;52.630;4.896;2022-10-16T14:56:23;7.63;;;1.17;;
46941;SDS011;32676;52.630;4.896;2022-10-16T14:58:53;16.27;;;2.30;;
46941;SDS011;32676;52.630;4.896;2022-10-16T15:01:21;15.13;;;2.22;;
46941;SDS011;32676;52.630;4.896;2022-10-16T15:03:48;9.13;;;1.50;;
46941;SDS011;32676;52.630;4.896;2022-10-16T15:06:17;9.35;;;1.75;;
46941;SDS011;32676;52.630;4.896;2022-10-16T15:08:45;19.95;;;2.13;;